Time,TemperatureF,DewpointF,PressureIn,WindDirection,WindDirectionDegrees,WindSpeedMPH,WindSpeedGustMPH,Humidity,HourlyPrecipIn,Conditions,Clouds,dailyrainin,SolarRadiationWatts/m^2,SoftwareType,DateUTC
2013-02-27 00:01:00,45.0,19.0,-100.00,SE,127,0.0,3.0,35,0.00,,,0.00,0.000000,,2013-02-27 08:01:00,
2013-02-27 00:42:00,45.0,15.0,-100.00,WSW,249,0.0,0.0,29,0.00,,,0.00,0.000000,,2013-02-27 08:42:00,
2013-02-27 00:52:00,45.0,15.0,-100.00,WSW,249,0.0,0.0,29,0.00,,,0.00,0.000000,,2013-02-27 08:52:00,
2013-02-27 01:01:00,45.0,15.0,-100.00,WSW,249,0.0,0.0,29,0.00,,,0.00,0.000000,,2013-02-27 09:01:00,
2013-02-27 01:11:00,45.0,15.0,-100.00,WSW,249,0.0,0.0,29,0.00,,,0.00,0.000000,,2013-02-27 09:11:00,
2013-02-27 01:42:00,43.0,17.0,-100.00,East,88,0.0,4.0,34,0.00,,,0.00,0.000000,,2013-02-27 09:42:00,
2013-02-27 01:52:00,43.0,17.0,-100.00,East,88,0.0,4.0,34,0.00,,,0.00,0.000000,,2013-02-27 09:52:00,
2013-02-27 02:01:00,43.0,17.0,-100.00,East,88,0.0,4.0,34,0.00,,,0.00,0.000000,,2013-02-27 10:01:00,
2013-02-27 02:12:00,43.0,17.0,-100.00,East,88,0.0,4.0,34,0.00,,,0.00,0.000000,,2013-02-27 10:12:00,
2013-02-27 02:42:00,43.0,15.0,-100.00,SW,229,0.0,0.0,32,0.00,,,0.00,0.000000,,2013-02-27 10:42:00,
2013-02-27 02:52:00,43.0,15.0,-100.00,SW,229,0.0,0.0,32,0.00,,,0.00,0.000000,,2013-02-27 10:52:00,
2013-02-27 03:01:00,43.0,15.0,-100.00,SW,229,0.0,0.0,32,0.00,,,0.00,0.000000,,2013-02-27 11:01:00,
2013-02-27 03:11:00,43.0,15.0,-100.00,SW,229,0.0,0.0,32,0.00,,,0.00,0.000000,,2013-02-27 11:11:00,
2013-02-27 03:32:00,40.0,15.0,-100.00,SSW,209,0.0,5.0,36,0.00,,,0.00,0.000000,,2013-02-27 11:32:00,
2013-02-27 03:42:00,40.0,15.0,-100.00,SSW,209,0.0,5.0,36,0.00,,,0.00,0.000000,,2013-02-27 11:42:00,
2013-02-27 03:52:00,40.0,15.0,-100.00,SSW,209,0.0,5.0,36,0.00,,,0.00,0.000000,,2013-02-27 11:52:00,
2013-02-27 04:02:00,40.0,15.0,-100.00,SSW,209,0.0,5.0,36,0.00,,,0.00,0.000000,,2013-02-27 12:02:00,
2013-02-27 04:12:00,40.0,15.0,-100.00,SSW,209,0.0,5.0,36,0.00,,,0.00,0.000000,,2013-02-27 12:12:00,
2013-02-27 04:42:00,42.0,18.0,-100.00,SW,232,0.0,4.0,37,0.00,,,0.00,0.000000,,2013-02-27 12:42:00,
2013-02-27 04:52:00,42.0,18.0,-100.00,SW,232,0.0,4.0,37,0.00,,,0.00,0.000000,,2013-02-27 12:52:00,
2013-02-27 05:02:00,42.0,18.0,-100.00,SW,232,0.0,4.0,37,0.00,,,0.00,0.000000,,2013-02-27 13:02:00,
2013-02-27 05:42:00,41.0,17.0,-100.00,SW,231,0.0,4.0,38,0.00,,,-99.99,0.000000,,2013-02-27 13:42:00,
2013-02-27 05:52:00,41.0,17.0,-100.00,SW,231,0.0,4.0,38,0.00,,,-99.99,0.000000,,2013-02-27 13:52:00,
2013-02-27 06:02:00,41.0,17.0,-100.00,SW,231,0.0,4.0,38,0.00,,,-99.99,0.000000,,2013-02-27 14:02:00,
2013-02-27 06:11:00,41.0,17.0,-100.00,SW,231,0.0,4.0,38,0.00,,,-99.99,0.000000,,2013-02-27 14:11:00,
2013-02-27 06:42:00,40.0,14.0,-100.00,SSW,204,0.0,7.0,34,0.00,,,0.00,0.000000,,2013-02-27 14:42:00,
2013-02-27 06:52:00,40.0,14.0,-100.00,SSW,204,0.0,7.0,34,0.00,,,0.00,0.000000,,2013-02-27 14:52:00,
2013-02-27 07:02:00,40.0,14.0,-100.00,SSW,204,0.0,7.0,34,0.00,,,0.00,0.000000,,2013-02-27 15:02:00,
2013-02-27 07:12:00,40.0,14.0,-100.00,SSW,204,0.0,7.0,34,0.00,,,0.00,0.000000,,2013-02-27 15:12:00,
2013-02-27 07:42:00,41.0,18.0,-100.00,East,93,1.0,4.0,39,0.00,,,0.00,51.000000,,2013-02-27 15:42:00,
2013-02-27 07:52:00,41.0,18.0,-100.00,East,93,1.0,4.0,39,0.00,,,0.00,51.000000,,2013-02-27 15:52:00,
2013-02-27 08:01:00,41.0,18.0,-100.00,East,93,1.0,4.0,39,0.00,,,0.00,51.000000,,2013-02-27 16:01:00,
2013-02-27 08:42:00,56.0,22.0,-100.00,South,174,0.0,5.0,26,-99.99,,,0.00,293.000000,,2013-02-27 16:42:00,
2013-02-27 08:52:00,56.0,22.0,-100.00,South,174,0.0,5.0,26,-99.99,,,0.00,293.000000,,2013-02-27 16:52:00,
2013-02-27 09:01:00,56.0,22.0,-100.00,South,174,0.0,5.0,26,-99.99,,,0.00,293.000000,,2013-02-27 17:01:00,
2013-02-27 09:11:00,56.0,22.0,-100.00,South,174,0.0,5.0,26,-99.99,,,0.00,293.000000,,2013-02-27 17:11:00,
2013-02-27 09:42:00,62.0,15.0,-100.00,West,260,0.0,5.0,16,0.00,,,0.00,493.000000,,2013-02-27 17:42:00,
2013-02-27 09:52:00,62.0,15.0,-100.00,West,260,0.0,5.0,16,0.00,,,0.00,493.000000,,2013-02-27 17:52:00,
2013-02-27 10:01:00,62.0,15.0,-100.00,West,260,0.0,5.0,16,0.00,,,0.00,493.000000,,2013-02-27 18:01:00,
2013-02-27 10:11:00,62.0,15.0,-100.00,West,260,0.0,5.0,16,0.00,,,0.00,493.000000,,2013-02-27 18:11:00,
2013-02-27 10:42:00,66.0,12.0,-100.00,West,268,3.0,8.0,12,0.00,,,0.00,651.000000,,2013-02-27 18:42:00,
2013-02-27 10:52:00,66.0,12.0,-100.00,West,268,3.0,8.0,12,0.00,,,0.00,651.000000,,2013-02-27 18:52:00,
2013-02-27 11:01:00,66.0,12.0,-100.00,West,268,3.0,8.0,12,0.00,,,0.00,651.000000,,2013-02-27 19:01:00,
2013-02-27 11:11:00,66.0,12.0,-100.00,West,268,3.0,8.0,12,0.00,,,0.00,651.000000,,2013-02-27 19:11:00,
2013-02-27 11:42:00,69.0,12.0,-100.00,West,269,2.0,8.0,11,0.00,,,0.00,720.000000,,2013-02-27 19:42:00,
2013-02-27 11:52:00,69.0,12.0,-100.00,West,269,2.0,8.0,11,0.00,,,0.00,720.000000,,2013-02-27 19:52:00,
2013-02-27 12:01:00,69.0,12.0,-100.00,West,269,2.0,8.0,11,0.00,,,0.00,720.000000,,2013-02-27 20:01:00,
2013-02-27 12:42:00,70.0,13.0,-100.00,West,267,3.0,9.0,11,-99.99,,,-99.99,766.000000,,2013-02-27 20:42:00,
2013-02-27 12:52:00,70.0,13.0,-100.00,West,267,3.0,9.0,11,-99.99,,,-99.99,766.000000,,2013-02-27 20:52:00,
2013-02-27 13:01:00,70.0,13.0,-100.00,West,267,3.0,9.0,11,-99.99,,,-99.99,766.000000,,2013-02-27 21:01:00,
2013-02-27 13:11:00,70.0,13.0,-100.00,West,267,3.0,9.0,11,-99.99,,,-99.99,766.000000,,2013-02-27 21:11:00,
2013-02-27 13:42:00,70.0,11.0,-100.00,West,263,6.0,17.0,10,0.00,,,-99.99,756.000000,,2013-02-27 21:42:00,
2013-02-27 13:52:00,70.0,11.0,-100.00,West,263,6.0,17.0,10,0.00,,,-99.99,756.000000,,2013-02-27 21:52:00,
2013-02-27 14:01:00,70.0,11.0,-100.00,West,263,6.0,17.0,10,0.00,,,-99.99,756.000000,,2013-02-27 22:01:00,
2013-02-27 14:11:00,70.0,11.0,-100.00,West,263,6.0,17.0,10,0.00,,,-99.99,756.000000,,2013-02-27 22:11:00,
2013-02-27 14:42:00,72.0,10.0,-100.00,West,276,7.0,12.0,9,0.00,,,0.00,669.000000,,2013-02-27 22:42:00,
2013-02-27 14:52:00,72.0,10.0,-100.00,West,276,7.0,12.0,9,0.00,,,0.00,669.000000,,2013-02-27 22:52:00,
2013-02-27 15:01:00,72.0,10.0,-100.00,West,276,7.0,12.0,9,0.00,,,0.00,669.000000,,2013-02-27 23:01:00,
2013-02-27 15:11:00,72.0,10.0,-100.00,West,276,7.0,12.0,9,0.00,,,0.00,669.000000,,2013-02-27 23:11:00,
2013-02-27 15:32:00,72.0,12.0,-100.00,West,269,5.0,11.0,10,0.00,,,0.00,529.000000,,2013-02-27 23:32:00,
2013-02-27 15:42:00,72.0,12.0,-100.00,West,269,5.0,11.0,10,0.00,,,0.00,529.000000,,2013-02-27 23:42:00,
2013-02-27 15:53:00,72.0,12.0,-100.00,West,269,5.0,11.0,10,0.00,,,0.00,529.000000,,2013-02-27 23:53:00,
2013-02-27 16:01:00,72.0,12.0,-100.00,West,269,5.0,11.0,10,0.00,,,0.00,529.000000,,2013-02-28 00:01:00,
2013-02-27 16:11:00,72.0,12.0,-100.00,West,269,5.0,11.0,10,0.00,,,0.00,529.000000,,2013-02-28 00:11:00,
2013-02-27 16:42:00,72.0,12.0,-100.00,West,275,1.0,11.0,10,0.00,,,0.00,294.000000,,2013-02-28 00:42:00,
2013-02-27 16:52:00,72.0,12.0,-100.00,West,275,1.0,11.0,10,0.00,,,0.00,294.000000,,2013-02-28 00:52:00,
2013-02-27 17:01:00,72.0,12.0,-100.00,West,275,1.0,11.0,10,0.00,,,0.00,294.000000,,2013-02-28 01:01:00,
2013-02-27 17:11:00,72.0,12.0,-100.00,West,275,1.0,11.0,10,0.00,,,0.00,294.000000,,2013-02-28 01:11:00,
2013-02-27 17:32:00,64.0,12.0,-100.00,SW,226,0.0,5.0,13,-99.99,,,0.00,40.000000,,2013-02-28 01:32:00,
2013-02-27 17:42:00,64.0,12.0,-100.00,SW,226,0.0,5.0,13,-99.99,,,0.00,40.000000,,2013-02-28 01:42:00,
2013-02-27 17:52:00,64.0,12.0,-100.00,SW,226,0.0,5.0,13,-99.99,,,0.00,40.000000,,2013-02-28 01:52:00,
2013-02-27 18:01:00,64.0,12.0,-100.00,SW,226,0.0,5.0,13,-99.99,,,0.00,40.000000,,2013-02-28 02:01:00,
2013-02-27 18:11:00,64.0,12.0,-100.00,SW,226,0.0,5.0,13,-99.99,,,0.00,40.000000,,2013-02-28 02:11:00,
2013-02-27 19:01:00,56.0,22.0,-100.00,SE,124,6.0,11.0,26,0.00,,,0.00,6.000000,,2013-02-28 03:01:00,
2013-02-27 19:32:00,53.0,13.0,-100.00,SE,130,5.0,11.0,20,0.00,,,0.00,0.000000,,2013-02-28 03:32:00,
2013-02-27 19:42:00,53.0,13.0,-100.00,SE,130,5.0,11.0,20,0.00,,,0.00,0.000000,,2013-02-28 03:42:00,
2013-02-27 19:52:00,53.0,13.0,-100.00,SE,130,5.0,11.0,20,0.00,,,0.00,0.000000,,2013-02-28 03:52:00,
2013-02-27 20:01:00,53.0,13.0,-100.00,SE,130,5.0,11.0,20,0.00,,,0.00,0.000000,,2013-02-28 04:01:00,
2013-02-27 20:11:00,53.0,13.0,-100.00,SE,130,5.0,11.0,20,0.00,,,0.00,0.000000,,2013-02-28 04:11:00,
2013-02-27 20:32:00,52.0,11.0,-100.00,SSW,206,2.0,14.0,19,0.00,,,-99.99,0.000000,,2013-02-28 04:32:00,
2013-02-27 20:42:00,52.0,11.0,-100.00,SSW,206,2.0,14.0,19,0.00,,,-99.99,0.000000,,2013-02-28 04:42:00,
2013-02-27 20:52:00,52.0,11.0,-100.00,SSW,206,2.0,14.0,19,0.00,,,-99.99,0.000000,,2013-02-28 04:52:00,
2013-02-27 21:01:00,52.0,11.0,-100.00,SSW,206,2.0,14.0,19,0.00,,,-99.99,0.000000,,2013-02-28 05:01:00,
2013-02-27 21:11:00,52.0,11.0,-100.00,SSW,206,2.0,14.0,19,0.00,,,-99.99,0.000000,,2013-02-28 05:11:00,
2013-02-27 21:32:00,48.0,16.0,-100.00,NNW,344,0.0,6.0,28,0.00,,,0.00,0.000000,,2013-02-28 05:32:00,
2013-02-27 21:42:00,48.0,16.0,-100.00,NNW,344,0.0,6.0,28,0.00,,,0.00,0.000000,,2013-02-28 05:42:00,
2013-02-27 21:52:00,48.0,16.0,-100.00,NNW,344,0.0,6.0,28,0.00,,,0.00,0.000000,,2013-02-28 05:52:00,
2013-02-27 22:01:00,48.0,16.0,-100.00,NNW,344,0.0,6.0,28,0.00,,,0.00,0.000000,,2013-02-28 06:01:00,
2013-02-27 22:11:00,48.0,16.0,-100.00,NNW,344,0.0,6.0,28,0.00,,,0.00,0.000000,,2013-02-28 06:11:00,
2013-02-27 22:32:00,47.0,16.0,-100.00,North,9,0.0,9.0,28,0.00,,,0.00,0.000000,,2013-02-28 06:32:00,
2013-02-27 22:42:00,47.0,16.0,-100.00,North,9,0.0,9.0,28,0.00,,,0.00,0.000000,,2013-02-28 06:42:00,
2013-02-27 22:52:00,47.0,16.0,-100.00,North,9,0.0,9.0,28,0.00,,,0.00,0.000000,,2013-02-28 06:52:00,
2013-02-27 23:01:00,47.0,16.0,-100.00,North,9,0.0,9.0,28,0.00,,,0.00,0.000000,,2013-02-28 07:01:00,
2013-02-27 23:11:00,47.0,16.0,-100.00,North,9,0.0,9.0,28,0.00,,,0.00,0.000000,,2013-02-28 07:11:00,
2013-02-27 23:42:00,45.0,16.0,-100.00,East,89,1.0,8.0,31,0.00,,,0.00,0.000000,,2013-02-28 07:42:00,
2013-02-27 23:52:00,45.0,16.0,-100.00,East,89,1.0,8.0,31,0.00,,,0.00,0.000000,,2013-02-28 07:52:00,